Goliad, Texas
Current Conditions -  °F | °C
As of 1:51 PM on Thursday 18 Dec 2014 (Local Time) from KVCT Reporting Station
Haze Haze  
Wind Chill: 68°   Ceiling: 500
Heat Index: 68°   Visibility: 5mi
Dew Point: 64°   Wind: 7mph
Humidity: 87%   Direction: 30°NNE
Pressure: 30.02"   Gusts: NA
Location:  28.67°N, 97.39°W
Report Text: KVCT 181951Z 03006KT 5SM BR OVC005 20/18 A3002 RMK AO2 SLP165 T02000178
Loading
Personal Weather Stations






























Interactive Weather Map New forecast layout! Learn more

10-Day Weather Forecast

Advertisements
Track Severe Weather on mobile